sensor_id;sensor_type;location;lat;lon;timestamp;temperature;humidity
11836;DHT22;5977;51.972;7.640;2022-12-07T00:01:06;15.50;71.90
11836;DHT22;5977;51.972;7.640;2022-12-07T00:03:34;15.50;72.00
11836;DHT22;5977;51.972;7.640;2022-12-07T00:06:03;15.50;71.90
11836;DHT22;5977;51.972;7.640;2022-12-07T00:08:32;15.50;71.90
11836;DHT22;5977;51.972;7.640;2022-12-07T00:11:01;15.50;71.90
11836;DHT22;5977;51.972;7.640;2022-12-07T00:13:30;15.60;71.90
11836;DHT22;5977;51.972;7.640;2022-12-07T00:16:00;15.50;71.80
11836;DHT22;5977;51.972;7.640;2022-12-07T00:18:30;15.50;71.90
11836;DHT22;5977;51.972;7.640;2022-12-07T00:21:00;15.50;71.90
11836;DHT22;5977;51.972;7.640;2022-12-07T00:23:29;15.50;71.90
11836;DHT22;5977;51.972;7.640;2022-12-07T00:26:03;15.50;71.90
11836;DHT22;5977;51.972;7.640;2022-12-07T00:28:31;15.50;72.00
11836;DHT22;5977;51.972;7.640;2022-12-07T00:31:02;15.50;71.90
11836;DHT22;5977;51.972;7.640;2022-12-07T00:33:31;15.50;71.90
11836;DHT22;5977;51.972;7.640;2022-12-07T00:36:00;15.50;71.90
11836;DHT22;5977;51.972;7.640;2022-12-07T00:38:30;15.50;71.90
11836;DHT22;5977;51.972;7.640;2022-12-07T00:40:59;15.50;71.90
11836;DHT22;5977;51.972;7.640;2022-12-07T00:43:28;15.50;71.90
11836;DHT22;5977;51.972;7.640;2022-12-07T00:45:56;15.50;72.00
11836;DHT22;5977;51.972;7.640;2022-12-07T00:48:25;15.50;71.90
11836;DHT22;5977;51.972;7.640;2022-12-07T00:50:54;15.50;71.90
11836;DHT22;5977;51.972;7.640;2022-12-07T00:53:22;15.50;72.00
11836;DHT22;5977;51.972;7.640;2022-12-07T00:55:50;15.50;72.00
11836;DHT22;5977;51.972;7.640;2022-12-07T00:58:19;15.50;72.00
11836;DHT22;5977;51.972;7.640;2022-12-07T01:00:47;15.50;72.00
11836;DHT22;5977;51.972;7.640;2022-12-07T01:03:15;15.50;72.00
11836;DHT22;5977;51.972;7.640;2022-12-07T01:05:49;15.50;72.00
11836;DHT22;5977;51.972;7.640;2022-12-07T01:08:19;15.50;72.00
11836;DHT22;5977;51.972;7.640;2022-12-07T01:10:47;15.50;72.00
11836;DHT22;5977;51.972;7.640;2022-12-07T01:13:15;15.50;72.10
11836;DHT22;5977;51.972;7.640;2022-12-07T01:15:44;15.50;72.00
11836;DHT22;5977;51.972;7.640;2022-12-07T01:18:12;15.50;72.10
11836;DHT22;5977;51.972;7.640;2022-12-07T01:20:40;15.50;72.10
11836;DHT22;5977;51.972;7.640;2022-12-07T01:23:08;15.50;72.10
11836;DHT22;5977;51.972;7.640;2022-12-07T01:25:37;15.50;72.00
11836;DHT22;5977;51.972;7.640;2022-12-07T01:28:05;15.50;72.10
11836;DHT22;5977;51.972;7.640;2022-12-07T01:30:33;15.50;72.10
11836;DHT22;5977;51.972;7.640;2022-12-07T01:33:00;15.50;72.10
11836;DHT22;5977;51.972;7.640;2022-12-07T01:35:28;15.50;72.10
11836;DHT22;5977;51.972;7.640;2022-12-07T01:37:56;15.50;72.10
11836;DHT22;5977;51.972;7.640;2022-12-07T01:40:24;15.50;72.20
11836;DHT22;5977;51.972;7.640;2022-12-07T01:42:53;15.50;72.20
11836;DHT22;5977;51.972;7.640;2022-12-07T01:45:37;15.50;72.20
11836;DHT22;5977;51.972;7.640;2022-12-07T01:48:05;15.50;72.20
11836;DHT22;5977;51.972;7.640;2022-12-07T01:50:35;15.50;72.20
11836;DHT22;5977;51.972;7.640;2022-12-07T01:53:05;15.50;72.30
11836;DHT22;5977;51.972;7.640;2022-12-07T01:55:35;15.50;72.30
11836;DHT22;5977;51.972;7.640;2022-12-07T01:58:06;15.50;72.20
11836;DHT22;5977;51.972;7.640;2022-12-07T02:00:35;15.50;72.30
11836;DHT22;5977;51.972;7.640;2022-12-07T02:03:06;15.50;72.20
11836;DHT22;5977;51.972;7.640;2022-12-07T02:05:37;15.50;72.20
11836;DHT22;5977;51.972;7.640;2022-12-07T02:08:06;15.40;72.20
11836;DHT22;5977;51.972;7.640;2022-12-07T02:10:35;15.50;72.30
11836;DHT22;5977;51.972;7.640;2022-12-07T02:13:08;15.40;72.20
11836;DHT22;5977;51.972;7.640;2022-12-07T02:15:45;15.50;72.30
11836;DHT22;5977;51.972;7.640;2022-12-07T02:18:20;15.50;72.30
11836;DHT22;5977;51.972;7.640;2022-12-07T02:20:57;15.50;72.30
11836;DHT22;5977;51.972;7.640;2022-12-07T02:23:40;15.50;72.30
11836;DHT22;5977;51.972;7.640;2022-12-07T02:29:14;15.40;72.20
11836;DHT22;5977;51.972;7.640;2022-12-07T02:31:46;15.50;72.30
11836;DHT22;5977;51.972;7.640;2022-12-07T02:34:20;15.40;72.30
11836;DHT22;5977;51.972;7.640;2022-12-07T02:36:53;15.50;72.30
11836;DHT22;5977;51.972;7.640;2022-12-07T02:39:28;15.40;72.30
11836;DHT22;5977;51.972;7.640;2022-12-07T02:42:02;15.40;72.30
11836;DHT22;5977;51.972;7.640;2022-12-07T02:44:32;15.40;72.40
11836;DHT22;5977;51.972;7.640;2022-12-07T02:47:02;15.40;72.30
11836;DHT22;5977;51.972;7.640;2022-12-07T02:49:31;15.40;72.30
11836;DHT22;5977;51.972;7.640;2022-12-07T02:51:59;15.40;72.40
11836;DHT22;5977;51.972;7.640;2022-12-07T02:54:27;15.50;72.40
11836;DHT22;5977;51.972;7.640;2022-12-07T02:57:01;15.40;72.40
11836;DHT22;5977;51.972;7.640;2022-12-07T02:59:40;15.40;72.40
11836;DHT22;5977;51.972;7.640;2022-12-07T03:02:18;15.50;72.50
11836;DHT22;5977;51.972;7.640;2022-12-07T03:04:54;15.40;72.40
11836;DHT22;5977;51.972;7.640;2022-12-07T03:07:31;15.50;72.50
11836;DHT22;5977;51.972;7.640;2022-12-07T03:10:03;15.40;72.50
11836;DHT22;5977;51.972;7.640;2022-12-07T03:12:39;15.40;72.50
11836;DHT22;5977;51.972;7.640;2022-12-07T03:15:17;15.40;72.50
11836;DHT22;5977;51.972;7.640;2022-12-07T03:17:47;15.40;72.50
11836;DHT22;5977;51.972;7.640;2022-12-07T03:20:17;15.40;72.50
11836;DHT22;5977;51.972;7.640;2022-12-07T03:22:47;15.40;72.50
11836;DHT22;5977;51.972;7.640;2022-12-07T03:25:16;15.40;72.50
11836;DHT22;5977;51.972;7.640;2022-12-07T03:27:48;15.40;72.50
11836;DHT22;5977;51.972;7.640;2022-12-07T03:30:22;15.40;72.50
11836;DHT22;5977;51.972;7.640;2022-12-07T03:32:53;15.40;72.50
11836;DHT22;5977;51.972;7.640;2022-12-07T03:35:28;15.40;72.60
11836;DHT22;5977;51.972;7.640;2022-12-07T03:37:59;15.40;72.60
11836;DHT22;5977;51.972;7.640;2022-12-07T03:40:30;15.40;72.50
11836;DHT22;5977;51.972;7.640;2022-12-07T03:43:01;15.40;72.60
11836;DHT22;5977;51.972;7.640;2022-12-07T03:45:35;15.40;72.50
11836;DHT22;5977;51.972;7.640;2022-12-07T03:48:08;15.40;72.50
11836;DHT22;5977;51.972;7.640;2022-12-07T03:50:41;15.40;73.30
11836;DHT22;5977;51.972;7.640;2022-12-07T03:53:14;15.40;72.60
11836;DHT22;5977;51.972;7.640;2022-12-07T03:55:44;15.40;73.30
11836;DHT22;5977;51.972;7.640;2022-12-07T03:58:17;15.40;72.60
11836;DHT22;5977;51.972;7.640;2022-12-07T04:00:47;15.40;72.60
11836;DHT22;5977;51.972;7.640;2022-12-07T04:03:16;15.40;72.60
11836;DHT22;5977;51.972;7.640;2022-12-07T04:05:44;15.40;72.60
11836;DHT22;5977;51.972;7.640;2022-12-07T04:08:12;15.40;72.60
11836;DHT22;5977;51.972;7.640;2022-12-07T04:10:40;15.40;72.60
11836;DHT22;5977;51.972;7.640;2022-12-07T04:13:08;15.40;72.60
11836;DHT22;5977;51.972;7.640;2022-12-07T04:15:35;15.40;72.60
11836;DHT22;5977;51.972;7.640;2022-12-07T04:18:05;15.40;72.60
11836;DHT22;5977;51.972;7.640;2022-12-07T04:20:32;15.40;72.60
11836;DHT22;5977;51.972;7.640;2022-12-07T04:23:00;15.40;72.50
11836;DHT22;5977;51.972;7.640;2022-12-07T04:25:28;15.40;72.40
11836;DHT22;5977;51.972;7.640;2022-12-07T04:27:56;15.40;72.30
11836;DHT22;5977;51.972;7.640;2022-12-07T04:30:24;15.40;72.10
11836;DHT22;5977;51.972;7.640;2022-12-07T04:32:52;15.40;71.90
11836;DHT22;5977;51.972;7.640;2022-12-07T04:35:21;15.30;71.60
11836;DHT22;5977;51.972;7.640;2022-12-07T04:37:49;15.30;71.40
11836;DHT22;5977;51.972;7.640;2022-12-07T04:40:17;15.40;71.20
11836;DHT22;5977;51.972;7.640;2022-12-07T04:42:46;15.30;70.90
11836;DHT22;5977;51.972;7.640;2022-12-07T04:45:14;15.30;70.70
11836;DHT22;5977;51.972;7.640;2022-12-07T04:47:41;15.30;70.50
11836;DHT22;5977;51.972;7.640;2022-12-07T04:50:12;15.30;70.30
11836;DHT22;5977;51.972;7.640;2022-12-07T04:52:41;15.30;70.00
11836;DHT22;5977;51.972;7.640;2022-12-07T04:55:09;15.30;69.80
11836;DHT22;5977;51.972;7.640;2022-12-07T04:57:37;15.30;69.60
11836;DHT22;5977;51.972;7.640;2022-12-07T05:00:06;15.30;70.20
11836;DHT22;5977;51.972;7.640;2022-12-07T05:02:34;15.30;69.20
11836;DHT22;5977;51.972;7.640;2022-12-07T05:05:03;15.30;69.00
11836;DHT22;5977;51.972;7.640;2022-12-07T05:07:31;15.30;68.80
11836;DHT22;5977;51.972;7.640;2022-12-07T05:10:00;15.20;68.60
11836;DHT22;5977;51.972;7.640;2022-12-07T05:12:28;15.30;68.50
11836;DHT22;5977;51.972;7.640;2022-12-07T05:14:56;15.30;68.50
11836;DHT22;5977;51.972;7.640;2022-12-07T05:17:24;15.30;68.60
11836;DHT22;5977;51.972;7.640;2022-12-07T05:19:52;15.40;68.70
11836;DHT22;5977;51.972;7.640;2022-12-07T05:22:20;15.40;68.50
11836;DHT22;5977;51.972;7.640;2022-12-07T05:24:47;15.40;68.50
11836;DHT22;5977;51.972;7.640;2022-12-07T05:27:17;15.40;68.40
11836;DHT22;5977;51.972;7.640;2022-12-07T05:29:44;15.40;68.40
11836;DHT22;5977;51.972;7.640;2022-12-07T05:32:12;15.40;68.30
11836;DHT22;5977;51.972;7.640;2022-12-07T05:34:40;15.30;68.10
11836;DHT22;5977;51.972;7.640;2022-12-07T05:37:09;15.30;68.00
11836;DHT22;5977;51.972;7.640;2022-12-07T05:39:37;15.40;68.00
11836;DHT22;5977;51.972;7.640;2022-12-07T05:42:08;15.40;67.80
11836;DHT22;5977;51.972;7.640;2022-12-07T05:44:42;15.30;67.60
11836;DHT22;5977;51.972;7.640;2022-12-07T05:47:10;15.30;68.30
11836;DHT22;5977;51.972;7.640;2022-12-07T05:49:38;15.40;67.50
11836;DHT22;5977;51.972;7.640;2022-12-07T05:52:07;15.30;67.40
11836;DHT22;5977;51.972;7.640;2022-12-07T05:54:35;15.30;67.20
11836;DHT22;5977;51.972;7.640;2022-12-07T05:57:03;15.30;67.10
11836;DHT22;5977;51.972;7.640;2022-12-07T05:59:31;15.30;66.90
11836;DHT22;5977;51.972;7.640;2022-12-07T06:02:01;15.30;67.60
11836;DHT22;5977;51.972;7.640;2022-12-07T06:04:30;15.30;66.80
11836;DHT22;5977;51.972;7.640;2022-12-07T06:06:58;15.30;66.60
11836;DHT22;5977;51.972;7.640;2022-12-07T06:09:27;15.30;66.60
11836;DHT22;5977;51.972;7.640;2022-12-07T06:11:56;15.30;66.60
11836;DHT22;5977;51.972;7.640;2022-12-07T06:14:42;15.30;66.40
11836;DHT22;5977;51.972;7.640;2022-12-07T06:17:12;15.30;66.80
11836;DHT22;5977;51.972;7.640;2022-12-07T06:19:40;15.30;67.00
11836;DHT22;5977;51.972;7.640;2022-12-07T06:22:08;15.40;67.20
11836;DHT22;5977;51.972;7.640;2022-12-07T06:24:38;15.30;67.20
11836;DHT22;5977;51.972;7.640;2022-12-07T06:27:06;15.40;67.30
11836;DHT22;5977;51.972;7.640;2022-12-07T06:29:34;15.40;67.30
11836;DHT22;5977;51.972;7.640;2022-12-07T06:32:02;15.30;67.40
11836;DHT22;5977;51.972;7.640;2022-12-07T06:34:31;15.40;67.40
11836;DHT22;5977;51.972;7.640;2022-12-07T06:37:00;15.30;67.40
11836;DHT22;5977;51.972;7.640;2022-12-07T06:39:28;15.40;67.60
11836;DHT22;5977;51.972;7.640;2022-12-07T06:41:57;15.40;67.60
11836;DHT22;5977;51.972;7.640;2022-12-07T06:44:25;15.40;67.70
11836;DHT22;5977;51.972;7.640;2022-12-07T06:46:53;15.40;67.70
11836;DHT22;5977;51.972;7.640;2022-12-07T06:49:42;15.40;67.80
11836;DHT22;5977;51.972;7.640;2022-12-07T06:52:10;15.40;67.80
11836;DHT22;5977;51.972;7.640;2022-12-07T06:54:38;15.40;67.90
11836;DHT22;5977;51.972;7.640;2022-12-07T06:57:06;15.40;68.00
11836;DHT22;5977;51.972;7.640;2022-12-07T06:59:33;15.40;68.00
11836;DHT22;5977;51.972;7.640;2022-12-07T07:02:01;15.40;68.10
11836;DHT22;5977;51.972;7.640;2022-12-07T07:04:29;15.40;68.10
11836;DHT22;5977;51.972;7.640;2022-12-07T07:06:58;15.40;68.20
11836;DHT22;5977;51.972;7.640;2022-12-07T07:09:26;15.40;68.20
11836;DHT22;5977;51.972;7.640;2022-12-07T07:11:54;15.40;68.30
11836;DHT22;5977;51.972;7.640;2022-12-07T07:14:22;15.40;68.40
11836;DHT22;5977;51.972;7.640;2022-12-07T07:16:50;15.40;68.40
11836;DHT22;5977;51.972;7.640;2022-12-07T07:19:18;15.40;68.70
11836;DHT22;5977;51.972;7.640;2022-12-07T07:21:46;15.40;68.60
11836;DHT22;5977;51.972;7.640;2022-12-07T07:24:15;15.40;68.70
11836;DHT22;5977;51.972;7.640;2022-12-07T07:26:43;15.40;68.80
11836;DHT22;5977;51.972;7.640;2022-12-07T07:29:11;15.30;68.90
11836;DHT22;5977;51.972;7.640;2022-12-07T07:31:39;15.40;69.00
11836;DHT22;5977;51.972;7.640;2022-12-07T07:34:06;15.40;69.20
11836;DHT22;5977;51.972;7.640;2022-12-07T07:36:34;15.40;69.30
11836;DHT22;5977;51.972;7.640;2022-12-07T07:39:02;15.40;69.30
11836;DHT22;5977;51.972;7.640;2022-12-07T07:41:32;15.40;69.40
11836;DHT22;5977;51.972;7.640;2022-12-07T07:44:01;15.40;69.50
11836;DHT22;5977;51.972;7.640;2022-12-07T07:46:29;15.40;70.30
11836;DHT22;5977;51.972;7.640;2022-12-07T07:48:59;15.40;69.60
11836;DHT22;5977;51.972;7.640;2022-12-07T07:51:27;15.40;69.60
11836;DHT22;5977;51.972;7.640;2022-12-07T07:53:55;15.40;69.70
11836;DHT22;5977;51.972;7.640;2022-12-07T07:56:23;15.40;69.80
11836;DHT22;5977;51.972;7.640;2022-12-07T07:58:53;15.40;69.70
11836;DHT22;5977;51.972;7.640;2022-12-07T08:01:21;15.40;69.80
11836;DHT22;5977;51.972;7.640;2022-12-07T08:03:49;15.40;69.80
11836;DHT22;5977;51.972;7.640;2022-12-07T08:06:17;15.40;70.10
11836;DHT22;5977;51.972;7.640;2022-12-07T08:08:45;15.50;70.10
11836;DHT22;5977;51.972;7.640;2022-12-07T08:11:12;15.50;70.30
11836;DHT22;5977;51.972;7.640;2022-12-07T08:13:40;15.50;70.20
11836;DHT22;5977;51.972;7.640;2022-12-07T08:16:10;15.50;70.20
11836;DHT22;5977;51.972;7.640;2022-12-07T08:18:39;15.40;70.30
11836;DHT22;5977;51.972;7.640;2022-12-07T08:21:11;15.40;70.20
11836;DHT22;5977;51.972;7.640;2022-12-07T08:23:39;15.40;70.20
11836;DHT22;5977;51.972;7.640;2022-12-07T08:26:14;15.40;70.20
11836;DHT22;5977;51.972;7.640;2022-12-07T08:28:43;15.40;70.10
11836;DHT22;5977;51.972;7.640;2022-12-07T08:31:14;15.50;70.20
11836;DHT22;5977;51.972;7.640;2022-12-07T08:33:44;15.50;69.90
11836;DHT22;5977;51.972;7.640;2022-12-07T08:36:13;15.60;69.70
11836;DHT22;5977;51.972;7.640;2022-12-07T08:38:41;15.80;69.40
11836;DHT22;5977;51.972;7.640;2022-12-07T08:41:29;15.90;68.90
11836;DHT22;5977;51.972;7.640;2022-12-07T08:43:57;16.10;68.40
11836;DHT22;5977;51.972;7.640;2022-12-07T08:46:30;16.20;68.20
11836;DHT22;5977;51.972;7.640;2022-12-07T08:49:03;16.30;67.60
11836;DHT22;5977;51.972;7.640;2022-12-07T08:51:32;16.40;67.30
11836;DHT22;5977;51.972;7.640;2022-12-07T08:54:02;16.60;67.00
11836;DHT22;5977;51.972;7.640;2022-12-07T08:56:31;16.60;66.70
11836;DHT22;5977;51.972;7.640;2022-12-07T08:58:59;16.70;66.40
11836;DHT22;5977;51.972;7.640;2022-12-07T09:01:29;16.80;66.20
11836;DHT22;5977;51.972;7.640;2022-12-07T09:03:57;16.60;66.20
11836;DHT22;5977;51.972;7.640;2022-12-07T09:06:25;16.40;66.70
11836;DHT22;5977;51.972;7.640;2022-12-07T09:08:56;16.20;67.30
11836;DHT22;5977;51.972;7.640;2022-12-07T09:11:25;16.10;67.70
11836;DHT22;5977;51.972;7.640;2022-12-07T09:13:54;16.00;68.00
11836;DHT22;5977;51.972;7.640;2022-12-07T09:16:22;16.00;68.40
11836;DHT22;5977;51.972;7.640;2022-12-07T09:18:52;15.90;68.60
11836;DHT22;5977;51.972;7.640;2022-12-07T09:21:19;15.80;68.80
11836;DHT22;5977;51.972;7.640;2022-12-07T09:23:47;15.90;68.90
11836;DHT22;5977;51.972;7.640;2022-12-07T09:26:15;15.90;68.80
11836;DHT22;5977;51.972;7.640;2022-12-07T09:28:43;15.90;68.80
11836;DHT22;5977;51.972;7.640;2022-12-07T09:31:11;15.90;68.80
11836;DHT22;5977;51.972;7.640;2022-12-07T09:33:56;15.90;69.00
11836;DHT22;5977;51.972;7.640;2022-12-07T09:36:26;15.90;69.20
11836;DHT22;5977;51.972;7.640;2022-12-07T09:38:54;15.90;69.50
11836;DHT22;5977;51.972;7.640;2022-12-07T09:41:23;15.90;69.50
11836;DHT22;5977;51.972;7.640;2022-12-07T09:43:52;16.00;69.70
11836;DHT22;5977;51.972;7.640;2022-12-07T09:46:21;16.00;69.70
11836;DHT22;5977;51.972;7.640;2022-12-07T09:48:50;16.00;69.60
11836;DHT22;5977;51.972;7.640;2022-12-07T09:51:21;16.10;69.40
11836;DHT22;5977;51.972;7.640;2022-12-07T09:53:53;16.20;69.20
11836;DHT22;5977;51.972;7.640;2022-12-07T09:56:22;16.20;69.00
11836;DHT22;5977;51.972;7.640;2022-12-07T09:58:53;16.20;68.80
11836;DHT22;5977;51.972;7.640;2022-12-07T10:01:23;16.30;68.70
11836;DHT22;5977;51.972;7.640;2022-12-07T10:03:53;16.20;68.80
11836;DHT22;5977;51.972;7.640;2022-12-07T10:06:23;16.30;68.80
11836;DHT22;5977;51.972;7.640;2022-12-07T10:08:51;16.30;68.70
11836;DHT22;5977;51.972;7.640;2022-12-07T10:11:19;16.30;68.70
11836;DHT22;5977;51.972;7.640;2022-12-07T10:13:48;16.30;68.70
11836;DHT22;5977;51.972;7.640;2022-12-07T10:16:37;16.20;68.80
11836;DHT22;5977;51.972;7.640;2022-12-07T10:19:19;16.20;69.00
11836;DHT22;5977;51.972;7.640;2022-12-07T10:22:04;16.20;69.00
11836;DHT22;5977;51.972;7.640;2022-12-07T10:24:32;16.30;68.80
11836;DHT22;5977;51.972;7.640;2022-12-07T10:27:00;16.50;68.50
11836;DHT22;5977;51.972;7.640;2022-12-07T10:29:30;16.50;68.20
11836;DHT22;5977;51.972;7.640;2022-12-07T10:32:00;16.40;68.30
11836;DHT22;5977;51.972;7.640;2022-12-07T10:34:30;16.40;68.50
11836;DHT22;5977;51.972;7.640;2022-12-07T10:37:17;16.30;68.60
11836;DHT22;5977;51.972;7.640;2022-12-07T10:39:47;16.30;68.80
11836;DHT22;5977;51.972;7.640;2022-12-07T10:42:19;16.30;68.70
11836;DHT22;5977;51.972;7.640;2022-12-07T10:44:48;16.20;69.00
11836;DHT22;5977;51.972;7.640;2022-12-07T10:47:29;16.20;69.10
11836;DHT22;5977;51.972;7.640;2022-12-07T10:50:18;16.10;69.10
11836;DHT22;5977;51.972;7.640;2022-12-07T10:53:04;16.10;69.20
11836;DHT22;5977;51.972;7.640;2022-12-07T10:55:45;16.00;69.00
11836;DHT22;5977;51.972;7.640;2022-12-07T10:58:31;15.90;69.10
11836;DHT22;5977;51.972;7.640;2022-12-07T11:01:10;15.90;68.90
11836;DHT22;5977;51.972;7.640;2022-12-07T11:03:56;15.90;68.90
11836;DHT22;5977;51.972;7.640;2022-12-07T11:06:34;15.90;68.80
11836;DHT22;5977;51.972;7.640;2022-12-07T11:09:37;15.90;68.70
11836;DHT22;5977;51.972;7.640;2022-12-07T11:12:52;15.90;68.70
11836;DHT22;5977;51.972;7.640;2022-12-07T11:15:26;16.00;68.80
11836;DHT22;5977;51.972;7.640;2022-12-07T11:18:02;16.00;68.80
11836;DHT22;5977;51.972;7.640;2022-12-07T11:20:43;16.10;68.70
11836;DHT22;5977;51.972;7.640;2022-12-07T11:23:18;16.10;68.70
11836;DHT22;5977;51.972;7.640;2022-12-07T11:25:54;16.10;68.80
11836;DHT22;5977;51.972;7.640;2022-12-07T11:28:41;16.20;69.00
11836;DHT22;5977;51.972;7.640;2022-12-07T11:31:21;16.20;68.90
11836;DHT22;5977;51.972;7.640;2022-12-07T11:34:15;16.20;69.20
11836;DHT22;5977;51.972;7.640;2022-12-07T11:36:48;16.20;69.50
11836;DHT22;5977;51.972;7.640;2022-12-07T11:39:24;16.20;70.40
11836;DHT22;5977;51.972;7.640;2022-12-07T11:42:00;16.30;71.50
11836;DHT22;5977;51.972;7.640;2022-12-07T11:44:32;16.30;72.10
11836;DHT22;5977;51.972;7.640;2022-12-07T11:47:05;16.30;72.30
11836;DHT22;5977;51.972;7.640;2022-12-07T11:49:42;16.30;72.50
11836;DHT22;5977;51.972;7.640;2022-12-07T11:52:18;16.30;72.50
11836;DHT22;5977;51.972;7.640;2022-12-07T11:54:51;16.30;72.60
11836;DHT22;5977;51.972;7.640;2022-12-07T11:57:29;16.30;72.70
11836;DHT22;5977;51.972;7.640;2022-12-07T12:00:03;16.30;72.80
11836;DHT22;5977;51.972;7.640;2022-12-07T12:02:36;16.20;72.90
11836;DHT22;5977;51.972;7.640;2022-12-07T12:05:13;16.20;72.90
11836;DHT22;5977;51.972;7.640;2022-12-07T12:07:43;16.30;72.90
11836;DHT22;5977;51.972;7.640;2022-12-07T12:10:39;16.30;73.60
11836;DHT22;5977;51.972;7.640;2022-12-07T12:13:28;16.30;72.90
11836;DHT22;5977;51.972;7.640;2022-12-07T12:16:36;16.20;72.90
11836;DHT22;5977;51.972;7.640;2022-12-07T12:19:19;16.20;72.90
11836;DHT22;5977;51.972;7.640;2022-12-07T12:21:55;16.30;72.90
11836;DHT22;5977;51.972;7.640;2022-12-07T12:24:27;16.30;72.80
11836;DHT22;5977;51.972;7.640;2022-12-07T12:27:01;16.30;72.80
11836;DHT22;5977;51.972;7.640;2022-12-07T12:29:34;16.30;72.80
11836;DHT22;5977;51.972;7.640;2022-12-07T12:32:12;16.20;72.80
11836;DHT22;5977;51.972;7.640;2022-12-07T12:34:57;16.20;72.80
11836;DHT22;5977;51.972;7.640;2022-12-07T12:37:42;16.20;72.80
11836;DHT22;5977;51.972;7.640;2022-12-07T12:40:40;16.20;72.90
11836;DHT22;5977;51.972;7.640;2022-12-07T12:46:48;16.20;72.90
11836;DHT22;5977;51.972;7.640;2022-12-07T12:53:01;16.20;73.00
11836;DHT22;5977;51.972;7.640;2022-12-07T12:58:43;16.20;73.20
11836;DHT22;5977;51.972;7.640;2022-12-07T13:04:49;16.20;73.30
11836;DHT22;5977;51.972;7.640;2022-12-07T13:07:53;16.10;73.20
11836;DHT22;5977;51.972;7.640;2022-12-07T13:10:32;16.00;73.10
11836;DHT22;5977;51.972;7.640;2022-12-07T13:13:05;16.00;73.10
11836;DHT22;5977;51.972;7.640;2022-12-07T13:15:52;16.00;73.00
11836;DHT22;5977;51.972;7.640;2022-12-07T13:18:25;16.00;73.00
11836;DHT22;5977;51.972;7.640;2022-12-07T13:24:16;15.90;72.80
11836;DHT22;5977;51.972;7.640;2022-12-07T13:26:46;15.90;72.70
11836;DHT22;5977;51.972;7.640;2022-12-07T13:29:15;15.90;72.70
11836;DHT22;5977;51.972;7.640;2022-12-07T13:31:45;15.90;72.60
11836;DHT22;5977;51.972;7.640;2022-12-07T13:34:31;15.90;72.60
11836;DHT22;5977;51.972;7.640;2022-12-07T13:37:00;16.00;72.80
11836;DHT22;5977;51.972;7.640;2022-12-07T13:39:32;16.00;73.10
11836;DHT22;5977;51.972;7.640;2022-12-07T13:42:12;16.00;73.20
11836;DHT22;5977;51.972;7.640;2022-12-07T13:44:42;16.10;73.30
11836;DHT22;5977;51.972;7.640;2022-12-07T13:47:14;16.10;73.30
11836;DHT22;5977;51.972;7.640;2022-12-07T13:49:48;16.10;73.40
11836;DHT22;5977;51.972;7.640;2022-12-07T13:52:22;16.10;73.40
11836;DHT22;5977;51.972;7.640;2022-12-07T13:54:57;16.10;73.50
11836;DHT22;5977;51.972;7.640;2022-12-07T13:57:29;16.00;73.50
11836;DHT22;5977;51.972;7.640;2022-12-07T13:59:58;16.00;73.50
11836;DHT22;5977;51.972;7.640;2022-12-07T14:02:28;16.00;73.40
11836;DHT22;5977;51.972;7.640;2022-12-07T14:05:08;16.00;73.40
11836;DHT22;5977;51.972;7.640;2022-12-07T14:07:48;16.00;73.40
11836;DHT22;5977;51.972;7.640;2022-12-07T14:10:28;16.00;73.50
11836;DHT22;5977;51.972;7.640;2022-12-07T14:12:57;16.00;73.50
11836;DHT22;5977;51.972;7.640;2022-12-07T14:15:28;16.00;73.50
11836;DHT22;5977;51.972;7.640;2022-12-07T14:17:58;16.00;73.50
11836;DHT22;5977;51.972;7.640;2022-12-07T14:20:31;16.00;73.50
11836;DHT22;5977;51.972;7.640;2022-12-07T14:22:59;16.00;73.40
11836;DHT22;5977;51.972;7.640;2022-12-07T14:25:47;16.00;73.40
11836;DHT22;5977;51.972;7.640;2022-12-07T14:28:27;16.00;73.40
11836;DHT22;5977;51.972;7.640;2022-12-07T14:30:55;16.00;73.50
11836;DHT22;5977;51.972;7.640;2022-12-07T14:33:24;15.90;73.40
11836;DHT22;5977;51.972;7.640;2022-12-07T14:35:52;15.90;73.40
11836;DHT22;5977;51.972;7.640;2022-12-07T14:38:21;16.00;73.40
11836;DHT22;5977;51.972;7.640;2022-12-07T14:40:53;16.00;73.50
11836;DHT22;5977;51.972;7.640;2022-12-07T14:43:21;16.00;73.50
11836;DHT22;5977;51.972;7.640;2022-12-07T14:45:49;16.00;73.70
11836;DHT22;5977;51.972;7.640;2022-12-07T14:48:16;16.00;73.70
11836;DHT22;5977;51.972;7.640;2022-12-07T14:51:05;16.00;73.80
11836;DHT22;5977;51.972;7.640;2022-12-07T14:53:53;15.90;74.10
11836;DHT22;5977;51.972;7.640;2022-12-07T14:56:24;15.90;74.10
11836;DHT22;5977;51.972;7.640;2022-12-07T14:58:54;15.90;74.30
11836;DHT22;5977;51.972;7.640;2022-12-07T15:01:22;15.90;74.30
11836;DHT22;5977;51.972;7.640;2022-12-07T15:03:49;15.90;74.40
11836;DHT22;5977;51.972;7.640;2022-12-07T15:06:18;15.90;74.40
11836;DHT22;5977;51.972;7.640;2022-12-07T15:08:46;15.80;74.40
11836;DHT22;5977;51.972;7.640;2022-12-07T15:11:14;15.80;74.40
11836;DHT22;5977;51.972;7.640;2022-12-07T15:13:44;15.80;74.40
11836;DHT22;5977;51.972;7.640;2022-12-07T15:16:29;15.90;74.40
11836;DHT22;5977;51.972;7.640;2022-12-07T15:19:18;15.80;74.20
11836;DHT22;5977;51.972;7.640;2022-12-07T15:21:55;15.80;74.20
11836;DHT22;5977;51.972;7.640;2022-12-07T15:24:23;15.80;74.20
11836;DHT22;5977;51.972;7.640;2022-12-07T15:26:51;15.80;74.20
11836;DHT22;5977;51.972;7.640;2022-12-07T15:29:21;15.80;74.20
11836;DHT22;5977;51.972;7.640;2022-12-07T15:31:49;15.80;74.20
11836;DHT22;5977;51.972;7.640;2022-12-07T15:34:23;15.80;74.20
11836;DHT22;5977;51.972;7.640;2022-12-07T15:36:51;15.80;74.20
11836;DHT22;5977;51.972;7.640;2022-12-07T15:39:19;15.80;74.10
11836;DHT22;5977;51.972;7.640;2022-12-07T15:41:48;15.80;74.10
11836;DHT22;5977;51.972;7.640;2022-12-07T15:44:16;15.80;74.10
11836;DHT22;5977;51.972;7.640;2022-12-07T15:47:04;15.80;74.10
11836;DHT22;5977;51.972;7.640;2022-12-07T15:49:31;15.80;74.20
11836;DHT22;5977;51.972;7.640;2022-12-07T15:51:59;15.80;74.20
11836;DHT22;5977;51.972;7.640;2022-12-07T15:54:28;15.80;74.20
11836;DHT22;5977;51.972;7.640;2022-12-07T15:56:56;15.80;74.20
11836;DHT22;5977;51.972;7.640;2022-12-07T15:59:26;15.80;74.20
11836;DHT22;5977;51.972;7.640;2022-12-07T16:01:54;15.80;74.20
11836;DHT22;5977;51.972;7.640;2022-12-07T16:04:24;15.80;74.30
11836;DHT22;5977;51.972;7.640;2022-12-07T16:06:52;15.80;74.30
11836;DHT22;5977;51.972;7.640;2022-12-07T16:09:19;15.80;74.20
11836;DHT22;5977;51.972;7.640;2022-12-07T16:11:48;15.80;74.20
11836;DHT22;5977;51.972;7.640;2022-12-07T16:14:16;15.80;74.20
11836;DHT22;5977;51.972;7.640;2022-12-07T16:16:44;15.80;74.20
11836;DHT22;5977;51.972;7.640;2022-12-07T16:19:12;15.80;74.20
11836;DHT22;5977;51.972;7.640;2022-12-07T16:21:41;15.80;74.90
11836;DHT22;5977;51.972;7.640;2022-12-07T16:24:09;15.80;74.20
11836;DHT22;5977;51.972;7.640;2022-12-07T16:26:39;15.80;74.20
11836;DHT22;5977;51.972;7.640;2022-12-07T16:29:15;15.80;74.00
11836;DHT22;5977;51.972;7.640;2022-12-07T16:31:43;15.80;74.00
11836;DHT22;5977;51.972;7.640;2022-12-07T16:34:11;15.80;74.00